Antelope, Montana
Current Conditions -  °F | °C
As of 5:07 AM on Friday 19 Dec 2014 (Local Time) from KISN Reporting Station
Moderate Fog Moderate Fog  
Wind Chill: 22°   Ceiling: 200
Heat Index: 22°   Visibility: 0.25mi
Dew Point: 21°   Wind: 0mph
Humidity: 96%   Direction: NA
Pressure: 29.92"   Gusts: NA
Location:  48.69°N, 104.46°W
Report Text: KISN 191207Z AUTO 00000KT 1/4SM FZFG VV002 M06/M06 A2992 RMK AO2 T10561061
Loading
Personal Weather Stations






























Interactive Weather Map New forecast layout! Learn more

10-Day Weather Forecast

Advertisements
Track Severe Weather on mobile